Univ of New Mexico, New Mexico
Current Conditions -  °F | °C
As of 10:52 AM on Friday 28 Nov 2014 (Local Time) from KABQ Reporting Station
Few Clouds Few Clouds  
Wind Chill: 51°   Ceiling: Unl
Heat Index: 51°   Visibility: 10mi
Dew Point: 21°   Wind: 0mph
Humidity: 31%   Direction: NA
Pressure: 30.26"   Gusts: NA
Location:  35.0806°N, 106.618°W
Report Text: KABQ 281752Z 00000KT 10SM FEW200 FEW300 11/M06 A3026 RMK AO2 SLP223 CCSL NE-E T01061061 10106 21011 58008
Loading
Personal Weather Stations






























Interactive Weather Map New forecast layout! Learn more

10-Day Weather Forecast

Advertisements
Track Severe Weather on mobile